createdAt,value
2023-02-02T00:00:36.057Z,11.20
2023-02-02T00:02:00.901Z,11.50
2023-02-02T00:03:03.946Z,11.20
2023-02-02T00:04:06.908Z,10.90
2023-02-02T00:05:10.013Z,11.50
2023-02-02T00:06:13.168Z,10.60
2023-02-02T00:07:16.056Z,10.30
2023-02-02T00:08:20.593Z,10.40
2023-02-02T00:09:24.283Z,10.40
2023-02-02T00:10:27.104Z,10.50
2023-02-02T00:11:29.999Z,10.80
2023-02-02T00:12:33.109Z,10.20
2023-02-02T00:13:36.108Z,10.80
2023-02-02T00:14:38.956Z,10.20
2023-02-02T00:15:41.807Z,9.60
2023-02-02T00:16:53.001Z,10.10
2023-02-02T00:17:55.911Z,10.60
2023-02-02T00:19:20.299Z,9.60
2023-02-02T00:20:24.160Z,9.20
2023-02-02T00:21:28.312Z,10.10
2023-02-02T00:22:31.952Z,10.60
2023-02-02T00:23:35.287Z,10.50
2023-02-02T00:24:38.476Z,10.00
2023-02-02T00:25:41.345Z,10.10
2023-02-02T00:26:46.203Z,9.70
2023-02-02T00:27:50.039Z,10.40
2023-02-02T00:28:53.574Z,10.00
2023-02-02T00:29:57.761Z,10.40
2023-02-02T00:31:00.670Z,10.10
2023-02-02T00:32:03.549Z,10.60
2023-02-02T00:33:06.456Z,10.40
2023-02-02T00:34:13.985Z,10.00
2023-02-02T00:35:17.080Z,10.50
2023-02-02T00:36:20.916Z,10.40
2023-02-02T00:37:23.793Z,10.50
2023-02-02T00:38:26.691Z,10.30
2023-02-02T00:39:29.781Z,10.90
2023-02-02T00:40:32.691Z,10.60
2023-02-02T00:41:35.859Z,10.00
2023-02-02T00:42:38.680Z,10.60
2023-02-02T00:43:41.614Z,10.20
2023-02-02T00:45:03.292Z,10.80
2023-02-02T00:46:12.599Z,9.90
2023-02-02T00:47:16.926Z,10.30
2023-02-02T00:48:20.097Z,10.50
2023-02-02T00:49:23.368Z,10.00
2023-02-02T00:50:26.707Z,9.70
2023-02-02T00:51:29.629Z,10.40
2023-02-02T00:52:32.525Z,10.80
2023-02-02T00:53:35.609Z,9.90
2023-02-02T00:54:38.509Z,10.90
2023-02-02T00:55:41.396Z,10.60
2023-02-02T00:56:44.600Z,11.20
2023-02-02T00:57:48.268Z,9.70
2023-02-02T00:58:51.136Z,10.50
2023-02-02T00:59:54.034Z,9.80
2023-02-02T01:00:57.016Z,9.10
2023-02-02T01:02:00.022Z,9.10
2023-02-02T01:03:04.673Z,9.60
2023-02-02T01:04:08.342Z,9.80
2023-02-02T01:05:12.486Z,9.10
2023-02-02T01:06:15.676Z,9.00
2023-02-02T01:07:18.559Z,8.80
2023-02-02T01:08:21.482Z,8.60
2023-02-02T01:09:24.314Z,9.10
2023-02-02T01:10:28.173Z,8.60
2023-02-02T01:11:31.119Z,9.40
2023-02-02T01:12:35.053Z,8.00
2023-02-02T01:13:37.999Z,8.20
2023-02-02T01:14:40.829Z,8.60
2023-02-02T01:15:43.693Z,8.50
2023-02-02T01:16:46.940Z,9.00
2023-02-02T01:17:49.872Z,9.00
2023-02-02T01:18:52.983Z,9.30
2023-02-02T01:19:55.924Z,9.40
2023-02-02T01:21:03.495Z,9.10
2023-02-02T01:22:07.688Z,8.70
2023-02-02T01:23:10.650Z,9.20
2023-02-02T01:24:13.635Z,8.90
2023-02-02T01:25:16.746Z,8.10
2023-02-02T01:26:19.827Z,8.90
2023-02-02T01:27:23.283Z,9.30
2023-02-02T01:28:27.377Z,8.60
2023-02-02T01:29:30.594Z,9.10
2023-02-02T01:30:33.474Z,9.00
2023-02-02T01:31:36.483Z,9.50
2023-02-02T01:32:39.357Z,9.10
2023-02-02T01:33:43.924Z,9.40
2023-02-02T01:34:46.887Z,9.80
2023-02-02T01:35:54.211Z,9.50
2023-02-02T01:36:59.154Z,9.00
2023-02-02T01:38:02.022Z,9.70
2023-02-02T01:39:05.477Z,10.00
2023-02-02T01:40:09.200Z,10.20
2023-02-02T01:41:14.779Z,10.00
2023-02-02T01:42:23.076Z,9.60
2023-02-02T01:43:44.344Z,9.20
2023-02-02T01:45:05.660Z,9.80
2023-02-02T01:46:15.124Z,9.50
2023-02-02T01:47:21.125Z,9.20
2023-02-02T01:48:32.791Z,8.90
2023-02-02T01:49:36.551Z,10.00
2023-02-02T01:50:39.728Z,9.30
2023-02-02T01:51:48.835Z,10.00
2023-02-02T01:52:53.962Z,10.10
2023-02-02T01:53:59.706Z,10.20
2023-02-02T01:55:08.660Z,9.40
2023-02-02T01:56:15.762Z,10.10
2023-02-02T01:57:28.295Z,10.30
2023-02-02T01:58:35.862Z,10.00
2023-02-02T01:59:39.315Z,10.30
2023-02-02T02:00:45.097Z,10.50
2023-02-02T02:01:52.480Z,10.60
2023-02-02T02:02:59.698Z,10.30
2023-02-02T02:04:02.769Z,11.00
2023-02-02T02:05:07.962Z,10.90
2023-02-02T02:06:14.788Z,10.10
2023-02-02T02:07:17.893Z,11.80
2023-02-02T02:08:28.964Z,11.00
2023-02-02T02:09:33.702Z,10.10
2023-02-02T02:10:37.115Z,11.70
2023-02-02T02:11:40.503Z,12.60
2023-02-02T02:12:43.551Z,13.00
2023-02-02T02:14:05.783Z,12.30
2023-02-02T02:15:29.247Z,10.90
2023-02-02T02:17:00.100Z,11.50
2023-02-02T02:18:16.843Z,11.50
2023-02-02T02:20:35.614Z,12.30
2023-02-02T02:22:17.547Z,9.00
2023-02-02T02:23:44.435Z,10.30
2023-02-02T02:25:47.518Z,9.80
2023-02-02T02:27:28.350Z,11.20
2023-02-02T02:28:56.725Z,11.70
2023-02-02T02:30:15.546Z,11.80
2023-02-02T02:31:33.579Z,12.40
2023-02-02T02:32:56.883Z,12.90
2023-02-02T02:34:09.891Z,12.70
2023-02-02T02:35:40.062Z,13.30
2023-02-02T02:36:51.577Z,12.90
2023-02-02T02:38:04.655Z,13.60
2023-02-02T02:39:18.853Z,14.70
2023-02-02T02:40:43.127Z,15.00
2023-02-02T02:41:52.489Z,15.80
2023-02-02T02:43:03.562Z,15.70
2023-02-02T02:44:14.445Z,15.40
2023-02-02T02:45:18.875Z,15.20
2023-02-02T02:46:23.141Z,15.60
2023-02-02T02:47:26.335Z,16.10
2023-02-02T02:48:29.766Z,16.70
2023-02-02T02:49:32.747Z,16.40
2023-02-02T02:50:36.144Z,15.00
2023-02-02T02:51:50.011Z,15.20
2023-02-02T02:53:06.405Z,15.30
2023-02-02T02:54:11.713Z,15.00
2023-02-02T02:55:14.962Z,15.20
2023-02-02T02:56:26.828Z,14.20
2023-02-02T02:57:41.401Z,13.90
2023-02-02T02:59:10.803Z,12.10
2023-02-02T03:00:38.135Z,13.40
2023-02-02T03:02:00.266Z,11.90
2023-02-02T03:03:14.900Z,11.80
2023-02-02T03:04:33.711Z,12.10
2023-02-02T03:06:25.497Z,10.70
2023-02-02T03:07:53.498Z,11.50
2023-02-02T03:09:19.675Z,13.60
2023-02-02T03:10:28.175Z,13.70
2023-02-02T03:11:31.346Z,14.40
2023-02-02T03:12:34.499Z,15.20
2023-02-02T03:13:38.442Z,16.60
2023-02-02T03:14:41.424Z,18.60
2023-02-02T03:15:45.567Z,17.60
2023-02-02T03:16:51.743Z,16.60
2023-02-02T03:17:54.953Z,17.50
2023-02-02T03:18:58.030Z,16.70
2023-02-02T03:20:00.892Z,14.60
2023-02-02T03:21:04.034Z,16.20
2023-02-02T03:22:07.135Z,17.40
2023-02-02T03:23:10.031Z,18.00
2023-02-02T03:24:12.963Z,17.20
2023-02-02T03:25:16.596Z,16.80
2023-02-02T03:26:20.202Z,18.00
2023-02-02T03:27:23.127Z,18.70
2023-02-02T03:28:27.152Z,18.90
2023-02-02T03:29:30.127Z,17.90
2023-02-02T03:30:34.458Z,17.50
2023-02-02T03:31:37.740Z,17.50
2023-02-02T03:32:40.969Z,17.50
2023-02-02T03:33:44.920Z,15.60
2023-02-02T03:34:47.781Z,15.90
2023-02-02T03:35:50.749Z,15.10
2023-02-02T03:36:53.602Z,13.00
2023-02-02T03:37:56.553Z,11.70
2023-02-02T03:38:59.412Z,10.80
2023-02-02T03:40:02.303Z,11.10
2023-02-02T03:41:06.286Z,9.80
2023-02-02T03:42:09.258Z,9.40
2023-02-02T03:43:12.215Z,8.60
2023-02-02T03:44:15.656Z,9.10
2023-02-02T03:45:18.574Z,9.60
2023-02-02T03:46:22.114Z,9.00
2023-02-02T03:47:28.709Z,8.80
2023-02-02T03:48:35.062Z,8.70
2023-02-02T03:49:37.936Z,9.30
2023-02-02T03:50:40.822Z,8.80
2023-02-02T03:51:44.511Z,8.20
2023-02-02T03:52:47.389Z,9.60
2023-02-02T03:53:50.380Z,8.40
2023-02-02T03:54:53.400Z,7.50
2023-02-02T03:55:56.273Z,8.10
2023-02-02T03:56:59.144Z,8.10
2023-02-02T03:58:02.038Z,7.70
2023-02-02T03:59:04.998Z,8.00
2023-02-02T04:00:08.801Z,7.60
2023-02-02T04:01:15.788Z,7.50
2023-02-02T04:02:18.712Z,7.10
2023-02-02T04:03:21.810Z,7.10
2023-02-02T04:04:25.274Z,8.20
2023-02-02T04:05:28.306Z,8.20
2023-02-02T04:06:31.391Z,7.40
2023-02-02T04:07:34.327Z,8.50
2023-02-02T04:08:37.315Z,7.30
2023-02-02T04:09:40.267Z,7.10
2023-02-02T04:10:43.681Z,6.80
2023-02-02T04:11:46.548Z,6.90
2023-02-02T04:12:49.600Z,7.70
2023-02-02T04:13:52.560Z,6.90
2023-02-02T04:14:55.660Z,6.60
2023-02-02T04:16:00.435Z,6.70
2023-02-02T04:17:03.382Z,6.70
2023-02-02T04:18:06.604Z,6.10
2023-02-02T04:19:09.776Z,6.30
2023-02-02T04:20:12.711Z,5.80
2023-02-02T04:21:15.684Z,6.70
2023-02-02T04:22:18.571Z,6.20
2023-02-02T04:23:21.500Z,5.80
2023-02-02T04:24:24.386Z,5.90
2023-02-02T04:25:27.463Z,5.80
2023-02-02T04:26:30.666Z,6.80
2023-02-02T04:27:34.598Z,6.10
2023-02-02T04:28:37.509Z,4.80
2023-02-02T04:29:40.491Z,5.80
2023-02-02T04:30:43.458Z,5.10
2023-02-02T04:31:46.378Z,5.60
2023-02-02T04:32:51.232Z,4.70
2023-02-02T04:33:54.114Z,4.60
2023-02-02T04:34:56.971Z,5.00
2023-02-02T04:35:59.881Z,4.50
2023-02-02T04:37:02.801Z,5.30
2023-02-02T04:38:05.723Z,4.40
2023-02-02T04:39:11.763Z,4.80
2023-02-02T04:40:14.885Z,4.00
2023-02-02T04:41:19.056Z,4.90
2023-02-02T04:42:21.945Z,4.70
2023-02-02T04:43:25.458Z,4.80
2023-02-02T04:44:28.789Z,4.10
2023-02-02T04:45:31.725Z,4.80
2023-02-02T04:46:34.658Z,4.40
2023-02-02T04:47:37.565Z,4.40
2023-02-02T04:48:42.124Z,4.70
2023-02-02T04:49:45.109Z,4.40
2023-02-02T04:50:48.142Z,4.70
2023-02-02T04:51:51.093Z,3.80
2023-02-02T04:52:54.092Z,4.10
2023-02-02T04:53:56.979Z,4.20
2023-02-02T04:54:59.861Z,4.60
2023-02-02T04:56:13.105Z,3.70
2023-02-02T04:57:15.976Z,4.00
2023-02-02T04:58:19.699Z,4.00
2023-02-02T04:59:22.625Z,4.60
2023-02-02T05:00:25.648Z,4.40
2023-02-02T05:01:30.524Z,4.00
2023-02-02T05:02:36.790Z,4.90
2023-02-02T05:03:39.765Z,4.40
2023-02-02T05:04:42.707Z,4.60
2023-02-02T05:05:45.556Z,3.40
2023-02-02T05:06:48.445Z,3.60
2023-02-02T05:07:51.309Z,4.80
2023-02-02T05:08:54.265Z,4.40
2023-02-02T05:09:57.196Z,4.70
2023-02-02T05:11:00.112Z,4.80
2023-02-02T05:12:03.142Z,4.20
2023-02-02T05:13:06.018Z,3.90
2023-02-02T05:14:08.949Z,4.40
2023-02-02T05:15:11.811Z,4.30
2023-02-02T05:16:15.459Z,4.10
2023-02-02T05:17:18.460Z,3.70
2023-02-02T05:18:22.232Z,3.90
2023-02-02T05:19:25.160Z,3.70
2023-02-02T05:20:28.060Z,3.60
2023-02-02T05:21:30.922Z,3.50
2023-02-02T05:22:35.276Z,3.40
2023-02-02T05:23:38.177Z,3.50
2023-02-02T05:24:41.573Z,3.20
2023-02-02T05:25:44.481Z,3.50
2023-02-02T05:26:47.521Z,3.40
2023-02-02T05:27:50.485Z,3.30
2023-02-02T05:28:53.864Z,4.10
2023-02-02T05:29:56.809Z,3.50
2023-02-02T05:30:59.700Z,3.30
2023-02-02T05:32:03.217Z,4.70
2023-02-02T05:33:06.149Z,3.20
2023-02-02T05:34:11.637Z,3.30
2023-02-02T05:35:14.713Z,5.10
2023-02-02T05:36:17.872Z,3.30
2023-02-02T05:37:20.752Z,3.30
2023-02-02T05:38:23.645Z,3.20
2023-02-02T05:39:26.519Z,4.90
2023-02-02T05:40:29.744Z,3.80
2023-02-02T05:41:32.808Z,2.90
2023-02-02T05:42:35.777Z,3.30
2023-02-02T05:43:38.688Z,3.80
2023-02-02T05:44:41.549Z,3.70
2023-02-02T05:45:44.418Z,3.80
2023-02-02T05:46:47.335Z,3.50
2023-02-02T05:47:54.893Z,4.10
2023-02-02T05:49:00.392Z,3.20
2023-02-02T05:50:03.357Z,3.10
2023-02-02T05:51:21.818Z,3.90
2023-02-02T05:52:25.926Z,4.20
2023-02-02T05:53:31.174Z,4.00
2023-02-02T05:54:34.485Z,3.60
2023-02-02T05:55:37.402Z,4.00
2023-02-02T05:56:40.539Z,4.40
2023-02-02T05:57:43.431Z,4.50
2023-02-02T05:58:48.232Z,3.30
2023-02-02T05:59:51.043Z,4.00
2023-02-02T06:00:56.472Z,3.60
2023-02-02T06:01:59.726Z,4.40
2023-02-02T06:03:02.674Z,3.50
2023-02-02T06:04:05.764Z,4.70
2023-02-02T06:05:09.011Z,4.40
2023-02-02T06:06:13.407Z,4.10
2023-02-02T06:07:32.900Z,3.60
2023-02-02T06:08:36.340Z,3.70
2023-02-02T06:09:40.045Z,3.80
2023-02-02T06:10:42.990Z,4.50
2023-02-02T06:11:46.512Z,4.80
2023-02-02T06:12:49.390Z,5.00
2023-02-02T06:13:52.333Z,5.30
2023-02-02T06:14:55.279Z,4.00
2023-02-02T06:15:58.182Z,4.80
2023-02-02T06:17:01.170Z,4.80
2023-02-02T06:18:06.807Z,4.60
2023-02-02T06:19:09.862Z,4.30
2023-02-02T06:20:13.148Z,4.50
2023-02-02T06:21:16.183Z,4.20
2023-02-02T06:22:19.135Z,5.30
2023-02-02T06:23:22.059Z,4.30
2023-02-02T06:24:25.150Z,4.40
2023-02-02T06:25:28.567Z,4.40
2023-02-02T06:26:31.608Z,4.70
2023-02-02T06:27:34.548Z,4.60
2023-02-02T06:28:37.415Z,6.70
2023-02-02T06:29:40.373Z,4.90
2023-02-02T06:30:44.310Z,4.20
2023-02-02T06:31:48.040Z,5.20
2023-02-02T06:32:51.324Z,4.80
2023-02-02T06:33:57.658Z,4.50
2023-02-02T06:35:00.514Z,4.80
2023-02-02T06:36:06.207Z,5.80
2023-02-02T06:37:09.567Z,4.60
2023-02-02T06:38:12.503Z,5.20
2023-02-02T06:39:15.391Z,4.90
2023-02-02T06:40:18.418Z,4.40
2023-02-02T06:41:21.510Z,5.40
2023-02-02T06:42:24.363Z,5.30
2023-02-02T06:43:27.424Z,5.10
2023-02-02T06:44:30.568Z,4.60
2023-02-02T06:45:33.558Z,4.60
2023-02-02T06:46:36.486Z,5.10
2023-02-02T06:47:39.398Z,4.90
2023-02-02T06:48:43.164Z,5.30
2023-02-02T06:49:46.007Z,5.30
2023-02-02T06:50:48.853Z,4.90
2023-02-02T06:51:51.716Z,4.40
2023-02-02T06:52:54.808Z,6.20
2023-02-02T06:53:59.495Z,4.80
2023-02-02T06:55:02.683Z,5.70
2023-02-02T06:56:07.623Z,5.00
2023-02-02T06:57:10.601Z,4.50
2023-02-02T06:58:13.492Z,5.50
2023-02-02T06:59:16.407Z,4.80
2023-02-02T07:00:20.659Z,5.30
2023-02-02T07:01:23.737Z,6.00
2023-02-02T07:02:26.702Z,5.60
2023-02-02T07:03:30.168Z,6.10
2023-02-02T07:04:33.552Z,5.90
2023-02-02T07:05:36.458Z,5.30
2023-02-02T07:06:40.003Z,6.10
2023-02-02T07:07:42.838Z,5.90
2023-02-02T07:08:56.042Z,5.80
2023-02-02T07:10:06.525Z,5.50
2023-02-02T07:11:15.391Z,6.60
2023-02-02T07:12:19.452Z,5.90
2023-02-02T07:13:23.303Z,6.10
2023-02-02T07:14:27.098Z,6.90
2023-02-02T07:15:29.976Z,6.20
2023-02-02T07:16:33.030Z,7.10
2023-02-02T07:17:35.917Z,6.20
2023-02-02T07:18:39.705Z,7.70
2023-02-02T07:19:42.561Z,6.10
2023-02-02T07:20:45.550Z,7.00
2023-02-02T07:21:48.500Z,6.90
2023-02-02T07:22:51.454Z,6.30
2023-02-02T07:23:54.348Z,6.80
2023-02-02T07:24:57.261Z,6.60
2023-02-02T07:26:08.445Z,6.30
2023-02-02T07:27:11.481Z,6.60
2023-02-02T07:28:14.404Z,6.10
2023-02-02T07:29:17.318Z,6.00
2023-02-02T07:30:21.357Z,6.50
2023-02-02T07:31:26.682Z,6.20
2023-02-02T07:32:29.600Z,6.90
2023-02-02T07:33:32.473Z,6.00
2023-02-02T07:34:38.831Z,6.60
2023-02-02T07:35:41.719Z,6.60
2023-02-02T07:36:44.598Z,8.20
2023-02-02T07:37:53.622Z,7.80
2023-02-02T07:38:57.803Z,10.40
2023-02-02T07:40:00.672Z,14.00
2023-02-02T07:41:04.411Z,9.00
2023-02-02T07:42:08.668Z,9.60
2023-02-02T07:43:11.910Z,8.70
2023-02-02T07:44:15.835Z,7.30
2023-02-02T07:45:27.667Z,7.90
2023-02-02T07:46:31.402Z,10.30
2023-02-02T07:47:34.327Z,6.40
2023-02-02T07:48:37.355Z,6.20
2023-02-02T07:49:40.260Z,5.70
2023-02-02T07:50:43.551Z,5.80
2023-02-02T07:51:49.198Z,6.50
2023-02-02T07:52:52.716Z,6.90
2023-02-02T07:53:58.707Z,6.40
2023-02-02T07:55:13.886Z,6.10
2023-02-02T07:56:19.375Z,7.30
2023-02-02T07:57:22.215Z,6.60
2023-02-02T07:58:25.086Z,5.40
2023-02-02T07:59:28.542Z,5.20
2023-02-02T08:00:32.144Z,4.90
2023-02-02T08:01:35.143Z,4.20
2023-02-02T08:02:38.059Z,4.30
2023-02-02T08:03:42.986Z,3.90
2023-02-02T08:04:47.460Z,4.10
2023-02-02T08:05:51.227Z,4.00
2023-02-02T08:06:54.319Z,4.00
2023-02-02T08:07:57.380Z,4.50
2023-02-02T08:09:01.502Z,5.70
2023-02-02T08:10:04.735Z,4.20
2023-02-02T08:11:12.493Z,4.80
2023-02-02T08:12:16.166Z,3.70
2023-02-02T08:13:19.353Z,3.70
2023-02-02T08:14:22.205Z,3.50
2023-02-02T08:15:25.583Z,4.10
2023-02-02T08:16:30.742Z,4.20
2023-02-02T08:17:33.646Z,4.10
2023-02-02T08:18:37.387Z,4.20
2023-02-02T08:19:40.310Z,3.80
2023-02-02T08:20:43.422Z,4.20
2023-02-02T08:21:46.487Z,4.30
2023-02-02T08:22:49.399Z,4.20
2023-02-02T08:23:53.340Z,4.00
2023-02-02T08:24:56.415Z,4.10
2023-02-02T08:26:11.335Z,4.50
2023-02-02T08:27:16.341Z,4.20
2023-02-02T08:28:19.321Z,4.30
2023-02-02T08:29:22.291Z,4.00
2023-02-02T08:30:25.486Z,4.10
2023-02-02T08:31:37.808Z,3.80
2023-02-02T08:32:40.774Z,4.10
2023-02-02T08:33:43.687Z,4.20
2023-02-02T08:34:48.962Z,4.50
2023-02-02T08:35:51.847Z,4.40
2023-02-02T08:36:54.819Z,4.30
2023-02-02T08:37:57.686Z,4.60
2023-02-02T08:39:03.316Z,4.70
2023-02-02T08:40:07.449Z,5.40
2023-02-02T08:41:13.341Z,5.60
2023-02-02T08:42:16.198Z,4.50
2023-02-02T08:43:19.659Z,5.00
2023-02-02T08:44:23.531Z,5.00
2023-02-02T08:46:01.393Z,4.80
2023-02-02T08:46:51.084Z,4.90
2023-02-02T08:48:10.362Z,5.40
2023-02-02T08:49:15.566Z,5.20
2023-02-02T08:50:18.529Z,5.60
2023-02-02T08:51:21.980Z,5.50
2023-02-02T08:52:25.905Z,5.90
2023-02-02T08:53:29.756Z,6.20
2023-02-02T08:54:33.075Z,6.90
2023-02-02T08:55:36.012Z,6.40
2023-02-02T08:56:38.888Z,5.70
2023-02-02T08:57:41.828Z,6.10
2023-02-02T08:58:55.439Z,5.90
2023-02-02T08:59:59.362Z,5.60
2023-02-02T09:01:23.327Z,5.90
2023-02-02T09:02:26.605Z,5.60
2023-02-02T09:03:29.495Z,6.60
2023-02-02T09:04:32.397Z,7.10
2023-02-02T09:05:36.013Z,6.50
2023-02-02T09:06:40.627Z,6.60
2023-02-02T09:07:43.527Z,6.30
2023-02-02T09:08:47.185Z,6.70
2023-02-02T09:09:52.747Z,6.50
2023-02-02T09:10:55.631Z,6.30
2023-02-02T09:11:58.501Z,6.10
2023-02-02T09:13:01.605Z,6.80
2023-02-02T09:14:06.844Z,6.00
2023-02-02T09:15:10.548Z,6.80
2023-02-02T09:16:15.582Z,6.40
2023-02-02T09:17:18.649Z,6.40
2023-02-02T09:18:21.517Z,6.40
2023-02-02T09:19:24.330Z,6.20
2023-02-02T09:20:27.294Z,6.80
2023-02-02T09:21:30.270Z,6.30
2023-02-02T09:22:33.476Z,6.10
2023-02-02T09:23:52.204Z,6.50
2023-02-02T09:24:55.270Z,7.60
2023-02-02T09:26:08.493Z,7.60
2023-02-02T09:27:11.477Z,7.00
2023-02-02T09:28:14.405Z,7.00
2023-02-02T09:29:20.795Z,6.80
2023-02-02T09:30:23.693Z,6.20
2023-02-02T09:31:27.155Z,6.10
2023-02-02T09:32:30.237Z,6.40
2023-02-02T09:33:33.053Z,6.90
2023-02-02T09:34:36.476Z,8.00
2023-02-02T09:35:39.441Z,7.40
2023-02-02T09:36:43.503Z,7.70
2023-02-02T09:37:46.460Z,7.80
2023-02-02T09:38:51.137Z,8.00
2023-02-02T09:39:54.069Z,8.80
2023-02-02T09:40:57.048Z,8.80
2023-02-02T09:42:12.716Z,9.60
2023-02-02T09:43:15.593Z,10.70
2023-02-02T09:44:57.436Z,8.80
2023-02-02T09:46:19.702Z,10.30
2023-02-02T09:47:47.602Z,9.60
2023-02-02T09:49:05.245Z,8.60
2023-02-02T09:50:25.188Z,7.50
2023-02-02T09:51:36.421Z,7.60
2023-02-02T09:52:46.437Z,7.20
2023-02-02T09:54:04.790Z,7.20
2023-02-02T09:55:23.780Z,7.20
2023-02-02T09:56:38.803Z,6.70
2023-02-02T09:57:47.599Z,7.50
2023-02-02T09:59:10.141Z,7.20
2023-02-02T10:00:44.171Z,7.10
2023-02-02T10:01:50.713Z,6.60
2023-02-02T10:03:00.757Z,6.60
2023-02-02T10:04:14.076Z,7.50
2023-02-02T10:05:27.585Z,7.60
2023-02-02T10:06:51.163Z,7.70
2023-02-02T10:08:00.248Z,8.20
2023-02-02T10:09:26.532Z,8.50
2023-02-02T10:10:40.473Z,8.20
2023-02-02T10:12:05.557Z,7.60
2023-02-02T10:13:17.086Z,7.50
2023-02-02T10:14:40.746Z,7.80
2023-02-02T10:16:17.476Z,7.60
2023-02-02T10:17:46.934Z,7.40
2023-02-02T10:19:06.003Z,7.50
2023-02-02T10:20:50.863Z,7.50
2023-02-02T10:22:19.581Z,6.90
2023-02-02T10:23:29.372Z,5.60
2023-02-02T10:25:35.580Z,5.20
2023-02-02T10:26:43.858Z,5.60
2023-02-02T10:28:01.231Z,6.00
2023-02-02T10:29:13.932Z,5.50
2023-02-02T10:30:22.798Z,5.10
2023-02-02T10:31:42.310Z,5.20
2023-02-02T10:33:01.293Z,4.70
2023-02-02T10:34:12.290Z,5.30
2023-02-02T10:36:16.581Z,5.20
2023-02-02T10:37:42.374Z,5.20
2023-02-02T10:38:58.226Z,5.30
2023-02-02T10:40:31.644Z,5.30
2023-02-02T10:41:43.559Z,5.60
2023-02-02T10:43:39.759Z,6.20
2023-02-02T10:44:57.843Z,5.70
2023-02-02T10:46:03.848Z,5.60
2023-02-02T10:47:13.130Z,5.80
2023-02-02T10:48:32.844Z,6.20
2023-02-02T10:50:54.354Z,5.30
2023-02-02T10:52:12.059Z,5.50
2023-02-02T10:53:16.629Z,5.80
2023-02-02T10:54:55.960Z,6.90
2023-02-02T10:57:47.116Z,5.70
2023-02-02T10:59:21.997Z,6.40
2023-02-02T11:00:58.866Z,5.80
2023-02-02T11:02:18.983Z,5.30
2023-02-02T11:03:27.528Z,5.60
2023-02-02T11:04:49.845Z,6.00
2023-02-02T11:06:11.955Z,5.90
2023-02-02T11:07:20.522Z,5.70
2023-02-02T11:08:35.469Z,6.50
2023-02-02T11:09:43.005Z,6.40
2023-02-02T11:10:48.490Z,6.40
2023-02-02T11:11:55.807Z,7.10
2023-02-02T11:13:02.092Z,6.90
2023-02-02T11:14:08.150Z,6.50
2023-02-02T11:15:27.714Z,7.80
2023-02-02T11:16:42.595Z,7.60
2023-02-02T11:17:46.353Z,7.80
2023-02-02T11:18:49.788Z,6.60
2023-02-02T11:19:56.231Z,7.20
2023-02-02T11:20:59.293Z,6.80
2023-02-02T11:22:04.566Z,7.00
2023-02-02T11:23:07.696Z,6.90
2023-02-02T11:24:30.816Z,7.20
2023-02-02T11:25:38.222Z,7.40
2023-02-02T11:26:56.020Z,6.70
2023-02-02T11:28:10.386Z,7.10
2023-02-02T11:29:37.501Z,7.90
2023-02-02T11:30:40.707Z,6.80
2023-02-02T11:31:44.887Z,7.20
2023-02-02T11:32:49.721Z,6.80
2023-02-02T11:33:52.725Z,6.80
2023-02-02T11:35:14.179Z,6.10
2023-02-02T11:36:22.048Z,6.00
2023-02-02T11:37:25.079Z,6.30
2023-02-02T11:38:29.227Z,6.30
2023-02-02T11:39:32.092Z,6.70
2023-02-02T11:40:44.414Z,7.00
2023-02-02T11:41:47.557Z,6.70
2023-02-02T11:42:52.176Z,7.60
2023-02-02T11:43:57.138Z,7.30
2023-02-02T11:45:00.282Z,7.40
2023-02-02T11:46:06.973Z,7.40
2023-02-02T11:47:19.682Z,7.40
2023-02-02T11:48:28.332Z,8.00
2023-02-02T11:49:37.612Z,8.30
2023-02-02T11:50:47.608Z,7.80
2023-02-02T11:52:03.929Z,8.30
2023-02-02T11:53:07.017Z,8.20
2023-02-02T11:54:21.740Z,8.20
2023-02-02T11:55:31.210Z,8.00
2023-02-02T11:56:37.451Z,8.40
2023-02-02T11:57:40.448Z,8.80
2023-02-02T11:58:45.642Z,9.40
2023-02-02T11:59:51.513Z,8.70
2023-02-02T12:00:58.853Z,9.10
2023-02-02T12:02:20.346Z,9.70
2023-02-02T12:03:47.892Z,9.30
2023-02-02T12:04:53.422Z,9.40
2023-02-02T12:05:57.041Z,9.40
2023-02-02T12:06:59.879Z,9.30
2023-02-02T12:08:02.956Z,10.00
2023-02-02T12:09:21.609Z,10.90
2023-02-02T12:10:33.027Z,9.80
2023-02-02T12:11:55.736Z,10.60
2023-02-02T12:13:16.811Z,10.10
2023-02-02T12:14:25.385Z,10.60
2023-02-02T12:16:08.950Z,10.10
2023-02-02T12:17:31.868Z,10.20
2023-02-02T12:18:48.840Z,11.10
2023-02-02T12:20:08.410Z,10.00
2023-02-02T12:21:21.093Z,10.60
2023-02-02T12:22:44.844Z,11.00
2023-02-02T12:24:11.038Z,10.10
2023-02-02T12:25:51.947Z,10.30
2023-02-02T12:27:34.135Z,11.40
2023-02-02T12:29:05.612Z,11.50
2023-02-02T12:30:28.217Z,12.20
2023-02-02T12:31:37.384Z,13.20
2023-02-02T12:32:46.885Z,13.50
2023-02-02T12:34:15.913Z,13.50
2023-02-02T12:35:57.946Z,12.20
2023-02-02T12:37:42.706Z,12.20
2023-02-02T12:39:11.245Z,10.20
2023-02-02T12:41:10.017Z,9.90
2023-02-02T12:42:36.697Z,8.20
2023-02-02T12:43:43.356Z,8.60
2023-02-02T12:45:10.929Z,9.30
2023-02-02T12:46:26.950Z,9.30
2023-02-02T12:47:41.680Z,8.60
2023-02-02T12:48:53.264Z,8.90
2023-02-02T12:50:14.941Z,8.50
2023-02-02T12:51:29.824Z,8.10
2023-02-02T12:53:12.031Z,7.00
2023-02-02T12:55:04.099Z,5.60
2023-02-02T12:56:21.023Z,4.60
2023-02-02T12:57:40.805Z,4.00
2023-02-02T12:59:23.921Z,5.00
2023-02-02T13:00:55.124Z,3.30
2023-02-02T13:02:35.857Z,2.90
2023-02-02T13:04:07.974Z,3.50
2023-02-02T13:07:52.830Z,3.50
2023-02-02T13:09:02.454Z,3.10
2023-02-02T13:10:37.983Z,3.40
2023-02-02T13:11:50.794Z,3.80
2023-02-02T13:12:58.073Z,4.10
2023-02-02T13:14:10.122Z,3.50
2023-02-02T13:15:19.314Z,3.00
2023-02-02T13:16:23.510Z,3.70
2023-02-02T13:17:39.323Z,4.10
2023-02-02T13:18:52.054Z,3.60
2023-02-02T13:20:02.287Z,3.60
2023-02-02T13:21:08.819Z,3.40
2023-02-02T13:22:30.055Z,3.00
2023-02-02T13:23:40.951Z,2.20
2023-02-02T13:24:48.063Z,2.50
2023-02-02T13:25:58.115Z,2.20
2023-02-02T13:27:06.160Z,2.30
2023-02-02T13:28:22.238Z,2.40
2023-02-02T13:30:16.290Z,3.10
2023-02-02T13:31:29.591Z,3.30
2023-02-02T13:32:43.929Z,3.30
2023-02-02T13:33:55.150Z,3.20
2023-02-02T13:35:31.568Z,3.60
2023-02-02T13:36:39.053Z,4.10
2023-02-02T13:38:02.200Z,3.90
2023-02-02T13:39:16.326Z,4.40
2023-02-02T13:40:38.692Z,3.70
2023-02-02T13:41:43.228Z,4.20
2023-02-02T13:42:55.929Z,5.10
2023-02-02T13:44:05.707Z,5.30
2023-02-02T13:46:47.520Z,5.00
2023-02-02T13:48:09.176Z,4.80
2023-02-02T13:49:17.378Z,5.40
2023-02-02T13:50:30.484Z,5.20
2023-02-02T13:52:09.367Z,5.70
2023-02-02T13:53:53.033Z,5.50
2023-02-02T13:55:27.955Z,5.40
2023-02-02T13:56:37.441Z,5.80
2023-02-02T13:57:59.484Z,5.90
2023-02-02T13:59:47.228Z,6.50
2023-02-02T14:01:13.227Z,5.60
2023-02-02T14:02:51.621Z,5.20
2023-02-02T14:03:57.877Z,6.30
2023-02-02T14:05:04.461Z,6.10
2023-02-02T14:06:17.564Z,5.50
2023-02-02T14:07:35.536Z,5.60
2023-02-02T14:08:46.851Z,5.10
2023-02-02T14:09:50.087Z,5.40
2023-02-02T14:10:53.239Z,5.30
2023-02-02T14:12:03.389Z,5.20
2023-02-02T14:13:36.552Z,5.10
2023-02-02T14:14:49.491Z,4.90
2023-02-02T14:15:55.889Z,5.70
2023-02-02T14:17:07.247Z,5.50
2023-02-02T14:18:13.229Z,5.30
2023-02-02T14:19:35.872Z,4.90
2023-02-02T14:20:43.701Z,4.60
2023-02-02T14:21:49.649Z,4.20
2023-02-02T14:23:05.524Z,4.70
2023-02-02T14:24:26.613Z,4.20
2023-02-02T14:25:29.540Z,4.20
2023-02-02T14:26:50.004Z,4.50
2023-02-02T14:28:01.246Z,3.80
2023-02-02T14:29:24.074Z,3.80
2023-02-02T14:30:30.192Z,4.10
2023-02-02T14:31:52.404Z,4.10
2023-02-02T14:33:24.472Z,4.20
2023-02-02T14:34:36.464Z,4.20
2023-02-02T14:35:42.046Z,4.50
2023-02-02T14:37:13.596Z,5.30
2023-02-02T14:38:49.651Z,4.40
2023-02-02T14:40:10.412Z,4.20
2023-02-02T14:41:39.094Z,3.90
2023-02-02T14:43:25.151Z,4.50
2023-02-02T14:44:28.720Z,4.40
2023-02-02T14:45:34.289Z,4.20
2023-02-02T14:46:48.262Z,3.70
2023-02-02T14:49:41.401Z,3.40
2023-02-02T14:50:52.880Z,3.40
2023-02-02T14:52:02.197Z,3.30
2023-02-02T14:53:19.753Z,3.30
2023-02-02T14:54:33.563Z,3.40
2023-02-02T14:55:51.527Z,3.40
2023-02-02T14:56:59.096Z,2.80
2023-02-02T14:58:06.035Z,2.70
2023-02-02T14:59:20.067Z,3.00
2023-02-02T15:00:28.178Z,2.70
2023-02-02T15:01:37.367Z,2.90
2023-02-02T15:02:40.204Z,2.80
2023-02-02T15:04:24.366Z,2.80
2023-02-02T15:05:38.907Z,2.70
2023-02-02T15:06:43.276Z,3.00
2023-02-02T15:07:54.552Z,3.10
2023-02-02T15:09:29.206Z,2.70
2023-02-02T15:11:00.484Z,2.70
2023-02-02T15:12:03.510Z,3.30
2023-02-02T15:13:16.071Z,3.30
2023-02-02T15:14:21.778Z,2.80
2023-02-02T15:15:30.192Z,2.70
2023-02-02T15:16:37.655Z,2.20
2023-02-02T15:17:40.798Z,2.70
2023-02-02T15:18:47.926Z,3.20
2023-02-02T15:20:20.846Z,3.20
2023-02-02T15:21:24.598Z,3.50
2023-02-02T15:22:51.613Z,3.40
2023-02-02T15:23:55.857Z,3.40
2023-02-02T15:25:04.925Z,3.90